Time;durP1;ratioP1;P1;durP2;ratioP2;P2;SDS_P1;SDS_P2;PMS_P1;PMS_P2;Temp;Humidity;BMP_temperature;BMP_pressure;BME280_temperature;BME280_humidity;BME280_pressure;Samples;Min_cycle;Max_cycle;Signal;HPM_P1;HPM_P2
2022/07/04 00:41:14;;;;;;;;;;;;;;;;;;;;;
2022/07/04 01:04:46;;;;;;;29.70;28.10;;;;;;;20.59;100.00;101093.50;5846120;24;20819;-84
2022/07/04 01:07:18;;;;;;;28.08;26.27;;;;;;;20.44;100.00;101088.81;5845915;24;20030;-84
2022/07/04 01:10:08;;;;;;;;;;;;;;;20.27;100.00;101089.03;5845842;24;20022;-83
2022/07/04 01:13:41;;;;;;;;;;;;;;;;;;;;;
2022/07/04 01:34:46;;;;;;;;;;;;;;;;;;;;;
2022/07/04 01:40:45;;;;;;;26.25;24.65;;;;;;;20.15;100.00;101091.09;5774284;24;20462;-84
2022/07/04 01:56:38;;;;;;;;;;;;;;;;;;;;;
2022/07/04 02:01:39;;;;;;;;;;;;;;;;;;;;;
2022/07/04 02:02:04;;;;;;;29.83;27.83;;;;;;;19.09;100.00;101100.72;5955534;23;20464;-85
2022/07/04 02:04:31;;;;;;;27.50;25.52;;;;;;;19.59;100.00;101109.53;6036789;23;20047;-88
2022/07/04 02:07:27;;;;;;;27.85;26.17;;;;;;;19.81;100.00;101098.69;6038030;23;20369;-87
2022/07/04 02:10:12;;;;;;;32.45;30.67;;;;;;;19.55;100.00;101106.53;6039434;23;20452;-86
2022/07/04 02:15:27;;;;;;;27.83;25.88;;;;;;;19.23;100.00;101110.00;6043108;23;20042;-87
2022/07/04 02:18:07;;;;;;;27.27;25.52;;;;;;;19.49;100.00;101115.63;6046266;23;20023;-88
2022/07/04 02:20:40;;;;;;;29.65;27.85;;;;;;;19.51;100.00;101120.75;6041421;23;20043;-87
2022/07/04 02:23:08;;;;;;;32.30;30.00;;;;;;;19.14;100.00;101113.41;6040958;23;20019;-87
2022/07/04 02:25:42;;;;;;;35.97;33.60;;;;;;;19.33;100.00;101114.66;6041445;23;20038;-88
2022/07/04 02:28:18;;;;;;;31.58;29.77;;;;;;;19.00;100.00;101129.13;6041058;23;20031;-87
2022/07/04 02:30:47;;;;;;;33.67;31.70;;;;;;;19.36;100.00;101133.00;6041036;23;20524;-88
2022/07/04 02:33:19;;;;;;;31.33;29.10;;;;;;;19.47;100.00;101125.84;6041232;23;20046;-88
2022/07/04 02:35:49;;;;;;;34.80;32.50;;;;;;;19.43;100.00;101124.75;6041090;23;20027;-87
2022/07/04 02:38:16;;;;;;;34.22;32.42;;;;;;;19.14;100.00;101132.25;6041247;23;20087;-86
2022/07/04 02:41:03;;;;;;;31.00;29.10;;;;;;;18.89;100.00;101127.41;6040391;23;20436;-87
2022/07/04 02:43:33;;;;;;;28.65;26.60;;;;;;;18.79;100.00;101132.63;6041518;23;20027;-86
2022/07/04 02:46:19;;;;;;;26.90;25.30;;;;;;;19.91;100.00;101120.34;6040420;23;20031;-85
2022/07/04 02:48:47;;;;;;;29.85;27.67;;;;;;;20.25;100.00;101117.31;6040416;23;20027;-87
2022/07/04 02:51:13;;;;;;;26.25;24.35;;;;;;;19.89;100.00;101130.56;6039897;23;20031;-85
2022/07/04 02:53:40;;;;;;;26.52;24.52;;;;;;;19.56;100.00;101128.91;6040303;23;20035;-86
2022/07/04 02:56:23;;;;;;;27.15;25.05;;;;;;;20.02;100.00;101129.28;6040276;23;20042;-85
2022/07/04 02:58:59;;;;;;;27.08;24.80;;;;;;;20.17;100.00;101144.75;6039165;23;20019;-86
2022/07/04 03:01:25;;;;;;;25.08;23.38;;;;;;;20.00;100.00;101134.97;6037614;23;20034;-87
2022/07/04 03:03:54;;;;;;;24.45;22.75;;;;;;;20.11;100.00;101125.84;6039359;23;20031;-87
2022/07/04 03:06:21;;;;;;;26.63;24.77;;;;;;;20.70;100.00;101132.16;6040243;23;20350;-87
2022/07/04 03:09:04;;;;;;;28.05;25.92;;;;;;;20.28;100.00;101127.59;6040641;23;20023;-88
2022/07/04 03:11:31;;;;;;;27.17;25.52;;;;;;;20.46;100.00;101131.72;6040660;23;20374;-87
2022/07/04 03:13:59;;;;;;;36.70;34.30;;;;;;;19.74;100.00;101130.44;6040265;23;20529;-87
2022/07/04 03:16:36;;;;;;;31.67;29.88;;;;;;;19.42;100.00;101131.19;6040457;23;20032;-87
2022/07/04 03:19:17;;;;;;;31.92;29.83;;;;;;;19.64;100.00;101126.59;6040706;23;20030;-87
2022/07/04 03:21:55;;;;;;;31.70;29.40;;;;;;;20.51;100.00;101129.84;6040913;23;20023;-88
2022/07/04 03:24:29;;;;;;;29.77;27.88;;;;;;;20.57;100.00;101133.41;6041721;23;20035;-88
2022/07/04 03:27:05;;;;;;;29.45;27.42;;;;;;;20.50;100.00;101125.53;6042270;23;20030;-88
2022/07/04 03:29:34;;;;;;;30.10;28.13;;;;;;;20.66;100.00;101129.16;6041962;23;20083;-87
2022/07/04 03:32:03;;;;;;;30.73;28.77;;;;;;;20.76;100.00;101131.09;6042040;23;20019;-85
2022/07/04 03:34:36;;;;;;;29.20;27.50;;;;;;;20.63;100.00;101131.56;6041976;23;20425;-86
2022/07/04 03:37:09;;;;;;;28.98;27.08;;;;;;;20.57;100.00;101130.72;6042381;23;20303;-89
2022/07/04 03:39:36;;;;;;;28.92;27.00;;;;;;;20.80;100.00;101133.00;6042643;23;20024;-85
2022/07/04 03:42:06;;;;;;;34.42;32.42;;;;;;;20.90;100.00;101139.50;6042542;23;20023;-87
2022/07/04 03:44:44;;;;;;;28.60;26.80;;;;;;;21.04;100.00;101138.75;6043372;23;20379;-87
2022/07/04 03:47:12;;;;;;;28.92;26.85;;;;;;;21.14;100.00;101134.44;6042421;23;20019;-86
2022/07/04 03:49:45;;;;;;;26.77;24.70;;;;;;;21.13;100.00;101143.63;6041510;23;20023;-86
2022/07/04 03:52:19;;;;;;;26.58;24.67;;;;;;;21.24;100.00;101132.59;6042551;23;20023;-86
2022/07/04 03:54:46;;;;;;;28.13;26.10;;;;;;;21.34;100.00;101134.50;6043548;23;20448;-86
2022/07/04 03:57:17;;;;;;;26.77;24.88;;;;;;;21.23;100.00;101128.25;6044867;23;20098;-88
2022/07/04 04:00:10;;;;;;;28.77;26.77;;;;;;;21.55;100.00;101124.56;6043699;23;20370;-88
2022/07/04 04:02:38;;;;;;;29.45;27.45;;;;;;;21.67;100.00;101133.22;6041134;23;20034;-88
2022/07/04 04:07:57;;;;;;;27.85;25.77;;;;;;;21.62;100.00;101130.50;6033328;23;20026;-85
2022/07/04 04:10:25;;;;;;;27.08;25.15;;;;;;;21.54;100.00;101133.72;6042600;23;20034;-87
2022/07/04 04:12:52;;;;;;;27.30;25.20;;;;;;;21.87;100.00;101131.56;6042820;23;20437;-88
2022/07/04 04:15:21;;;;;;;26.48;24.48;;;;;;;22.22;100.00;101130.75;6041713;23;20091;-87
2022/07/04 04:17:50;;;;;;;25.33;23.50;;;;;;;22.13;100.00;101135.88;6041207;23;20019;-86
2022/07/04 04:20:22;;;;;;;27.75;25.75;;;;;;;21.87;100.00;101132.38;6040381;23;20038;-85
2022/07/04 04:23:00;;;;;;;30.67;24.75;;;;;;;21.90;100.00;101131.84;6041986;23;20094;-87
2022/07/04 04:25:27;;;;;;;27.73;25.45;;;;;;;22.01;100.00;101134.56;6041079;23;20067;-86
2022/07/04 04:27:55;;;;;;;26.55;24.55;;;;;;;22.06;100.00;101139.94;6042483;23;20019;-86
2022/07/04 04:30:30;;;;;;;28.52;26.20;;;;;;;22.24;100.00;101142.13;6041378;23;20023;-86
2022/07/04 04:33:05;;;;;;;27.42;25.20;;;;;;;22.43;100.00;101144.25;6041322;23;20019;-87
2022/07/04 04:35:32;;;;;;;24.42;22.63;;;;;;;22.47;100.00;101135.28;6041869;23;20027;-87
2022/07/04 04:38:10;;;;;;;25.20;23.35;;;;;;;22.67;96.15;101139.03;6041437;23;20315;-87
2022/07/04 04:40:47;;;;;;;26.33;23.98;;;;;;;22.54;92.66;101140.41;6041529;23;20027;-87
2022/07/04 04:43:15;;;;;;;23.67;21.98;;;;;;;22.62;93.64;101131.72;6041798;23;20437;-86
2022/07/04 04:45:58;;;;;;;23.90;22.20;;;;;;;23.34;90.83;101137.63;6042695;23;20038;-87
2022/07/04 04:48:51;;;;;;;24.58;22.75;;;;;;;23.06;94.27;101144.56;6042648;23;20464;-88
2022/07/04 04:51:20;;;;;;;24.85;22.92;;;;;;;22.97;90.30;101141.63;6042090;23;20087;-88
2022/07/04 04:53:55;;;;;;;25.17;23.08;;;;;;;23.32;83.30;101145.22;6042191;23;20023;-87
2022/07/04 04:56:24;;;;;;;25.85;23.80;;;;;;;23.66;81.68;101139.84;6041784;23;20023;-89
2022/07/04 04:58:50;;;;;;;24.08;22.23;;;;;;;23.73;79.50;101144.97;6041654;23;20413;-87
2022/07/04 05:01:23;;;;;;;24.25;22.65;;;;;;;23.88;80.01;101139.41;6041840;23;20341;-88
2022/07/04 05:03:51;;;;;;;25.40;23.40;;;;;;;23.87;74.32;101145.09;6041114;23;20027;-86
2022/07/04 05:06:27;;;;;;;25.90;24.00;;;;;;;24.05;74.00;101144.38;6041711;23;20031;-88
2022/07/04 05:08:54;;;;;;;24.58;22.83;;;;;;;24.34;76.04;101144.38;6043811;23;20031;-86
2022/07/04 05:11:22;;;;;;;25.52;23.67;;;;;;;24.60;72.33;101141.41;6043626;23;20034;-87
2022/07/04 05:14:07;;;;;;;25.17;23.48;;;;;;;24.45;68.22;101142.41;6048768;23;20110;-86
2022/07/04 05:16:41;;;;;;;23.90;22.20;;;;;;;24.73;69.46;101140.72;6044039;23;20352;-88
2022/07/04 05:19:08;;;;;;;24.13;22.33;;;;;;;24.75;68.92;101148.56;6044436;23;20027;-85
2022/07/04 05:21:53;;;;;;;24.48;22.67;;;;;;;25.10;69.99;101152.72;6044444;23;20027;-88
2022/07/04 05:24:28;;;;;;;25.23;23.42;;;;;;;25.11;67.21;101143.47;6041721;23;20039;-87
2022/07/04 05:27:17;;;;;;;24.67;22.85;;;;;;;25.07;65.89;101151.38;6041737;23;20030;-87
2022/07/04 05:30:01;;;;;;;24.33;22.52;;;;;;;24.94;69.86;101159.47;6042609;23;20027;-85
2022/07/04 05:32:35;;;;;;;24.98;23.05;;;;;;;25.22;64.46;101155.84;6042169;23;20034;-88
2022/07/04 05:35:04;;;;;;;24.30;22.40;;;;;;;25.40;64.13;101156.94;6041101;23;20028;-83
2022/07/04 05:37:31;;;;;;;23.58;21.77;;;;;;;25.39;63.06;101151.78;6041808;23;20464;-86
2022/07/04 05:39:58;;;;;;;23.92;22.10;;;;;;;25.55;61.54;101148.53;6042146;23;20024;-87
2022/07/04 05:42:37;;;;;;;25.42;23.08;;;;;;;26.14;64.90;101151.66;6041182;23;20031;-86
2022/07/04 05:45:39;;;;;;;24.38;22.50;;;;;;;25.97;58.46;101151.44;6040775;23;20090;-87
2022/07/04 05:48:08;;;;;;;23.77;21.97;;;;;;;26.01;60.29;101158.69;6039863;23;20314;-85
2022/07/04 05:50:38;;;;;;;23.35;21.75;;;;;;;26.19;60.35;101151.56;6039281;23;20015;-86
2022/07/04 05:53:09;;;;;;;24.67;22.65;;;;;;;26.25;59.64;101147.63;6046481;23;20031;-87
2022/07/04 05:55:37;;;;;;;23.63;21.70;;;;;;;26.34;57.61;101153.19;6041003;23;20027;-86
2022/07/04 05:58:05;;;;;;;23.90;22.10;;;;;;;26.51;57.91;101158.09;6042092;23;20090;-85
2022/07/04 06:00:40;;;;;;;24.60;22.27;;;;;;;26.54;58.44;101154.75;6041618;23;20053;-87
2022/07/04 06:03:09;;;;;;;24.63;22.33;;;;;;;26.89;56.76;101153.19;6041535;23;20449;-85
2022/07/04 06:05:37;;;;;;;26.23;24.02;;;;;;;26.96;59.42;101158.25;6045937;23;20030;-85
2022/07/04 06:08:04;;;;;;;25.95;23.45;;;;;;;26.64;58.76;101151.81;6045430;23;20071;-87
2022/07/04 06:10:31;;;;;;;26.52;24.52;;;;;;;27.00;61.34;101158.44;6043802;23;20023;-85
2022/07/04 06:12:58;;;;;;;26.13;24.40;;;;;;;27.37;56.06;101154.63;6046394;23;20505;-87
2022/07/04 06:15:26;;;;;;;26.83;25.05;;;;;;;27.53;53.77;101161.31;6043933;23;20030;-86
2022/07/04 06:17:53;;;;;;;27.67;25.73;;;;;;;27.79;57.84;101155.28;6047372;23;20023;-85
2022/07/04 06:20:23;;;;;;;25.73;23.98;;;;;;;28.22;56.83;101150.03;6048839;23;20031;-87
2022/07/04 06:22:50;;;;;;;28.42;26.08;;;;;;;27.85;54.48;101157.56;6046123;23;20034;-85
2022/07/04 06:25:19;;;;;;;26.33;24.23;;;;;;;28.09;54.16;101145.50;6044168;23;20030;-85
2022/07/04 06:27:47;;;;;;;24.85;22.73;;;;;;;28.39;56.05;101151.25;6046406;23;20024;-86
2022/07/04 06:30:16;;;;;;;24.98;22.90;;;;;;;28.51;54.35;101148.75;6042493;23;20039;-89
2022/07/04 06:32:45;;;;;;;25.33;23.20;;;;;;;28.52;54.49;101153.09;6043120;23;20034;-85
2022/07/04 06:37:58;;;;;;;24.33;22.52;;;;;;;28.59;52.52;101142.50;6044193;23;20059;-87
2022/07/04 06:40:25;;;;;;;26.35;24.25;;;;;;;28.52;55.14;101134.78;6044058;23;20027;-85
2022/07/04 06:42:52;;;;;;;27.58;25.30;;;;;;;29.16;58.23;101133.44;6043039;23;20082;-86
2022/07/04 06:45:19;;;;;;;26.05;23.77;;;;;;;28.98;53.97;101143.53;6043772;23;20023;-88
2022/07/04 06:47:46;;;;;;;26.63;24.35;;;;;;;29.13;54.01;101129.44;6044606;23;20031;-88
2022/07/04 06:50:13;;;;;;;26.75;24.77;;;;;;;29.12;49.85;101132.50;6047246;23;20023;-87
2022/07/04 06:52:40;;;;;;;27.35;25.20;;;;;;;29.42;50.06;101125.25;6044456;23;20030;-88
2022/07/04 06:55:09;;;;;;;27.73;25.67;;;;;;;29.45;50.64;101119.13;6043264;23;20024;-87
2022/07/04 06:57:36;;;;;;;27.15;24.92;;;;;;;29.74;48.10;101128.59;6044625;23;20019;-88
2022/07/04 07:00:05;;;;;;;27.63;25.73;;;;;;;30.04;47.87;101129.47;6043128;23;20023;-86
2022/07/04 07:02:31;;;;;;;29.50;27.27;;;;;;;30.14;47.33;101126.38;6042697;23;20090;-86
2022/07/04 07:04:58;;;;;;;28.50;26.33;;;;;;;30.16;46.88;101115.88;6044124;23;20027;-84
2022/07/04 07:07:26;;;;;;;28.77;26.67;;;;;;;30.53;47.97;101128.00;6043415;23;20468;-85
2022/07/04 07:09:53;;;;;;;29.65;27.45;;;;;;;30.54;47.35;101124.13;6043730;23;20019;-84
2022/07/04 07:12:22;;;;;;;33.20;30.77;;;;;;;30.84;44.84;101123.31;6044911;23;20030;-86
2022/07/04 07:14:49;;;;;;;29.95;27.80;;;;;;;30.79;44.38;101122.38;6042758;23;20030;-85
2022/07/04 07:17:16;;;;;;;34.05;32.00;;;;;;;30.75;47.42;101118.66;6046670;23;20023;-86
2022/07/04 07:19:43;;;;;;;32.05;29.83;;;;;;;30.84;45.20;101126.06;6047052;23;20027;-87
2022/07/04 07:22:11;;;;;;;30.23;28.08;;;;;;;30.80;44.56;101120.41;6044014;23;20023;-84
2022/07/04 07:24:38;;;;;;;29.80;27.85;;;;;;;30.79;43.26;101121.56;6042363;23;20024;-85
2022/07/04 07:27:06;;;;;;;29.98;28.05;;;;;;;30.90;46.87;101132.97;6042195;23;20027;-84
2022/07/04 07:29:34;;;;;;;35.03;32.47;;;;;;;31.20;45.58;101120.78;6042354;23;20028;-85
2022/07/04 07:32:08;;;;;;;27.70;25.85;;;;;;;31.37;44.75;101119.84;6042764;23;20023;-85
2022/07/04 07:34:42;;;;;;;29.42;27.65;;;;;;;31.57;42.62;101120.94;6043645;23;20023;-86
2022/07/04 07:37:41;;;;;;;28.92;27.02;;;;;;;31.78;44.84;101123.63;6042994;23;20099;-88
2022/07/04 07:40:10;;;;;;;30.67;28.67;;;;;;;30.93;50.24;101118.59;5957930;24;20025;-86
2022/07/04 07:42:47;;;;;;;29.30;27.40;;;;;;;31.46;47.94;101117.81;6023613;23;20023;-84
2022/07/04 07:45:16;;;;;;;32.08;29.70;;;;;;;31.68;40.73;101115.81;6042749;23;20026;-84
2022/07/04 07:47:43;;;;;;;29.35;27.25;;;;;;;31.26;42.25;101116.69;6042026;23;20020;-86
2022/07/04 07:50:34;;;;;;;32.25;29.95;;;;;;;32.07;42.90;101110.88;6042726;23;20024;-87
2022/07/04 07:53:02;;;;;;;33.00;30.60;;;;;;;32.37;44.78;101105.94;6041840;23;20027;-85
2022/07/04 07:55:33;;;;;;;32.92;30.33;;;;;;;32.24;38.96;101107.09;6044372;23;20030;-86
2022/07/04 07:58:01;;;;;;;35.33;32.40;;;;;;;32.44;40.81;101100.72;6044398;23;20310;-87
2022/07/04 08:00:31;;;;;;;35.95;33.03;;;;;;;31.93;47.98;101112.00;6044437;23;20034;-86
2022/07/04 08:05:54;;;;;;;35.25;32.72;;;;;;;32.53;38.26;101112.41;6044647;23;20122;-86
2022/07/04 08:08:27;;;;;;;36.92;33.95;;;;;;;32.64;39.58;101104.47;6043298;23;20378;-85
2022/07/04 08:10:57;;;;;;;31.13;28.73;;;;;;;32.83;40.43;101106.59;6044354;23;20023;-86
2022/07/04 08:13:26;;;;;;;32.03;29.55;;;;;;;33.01;41.16;101102.47;6042932;23;20020;-86
2022/07/04 08:16:17;;;;;;;32.05;29.58;;;;;;;33.18;39.18;101112.34;6042263;23;20042;-85
2022/07/04 08:18:56;;;;;;;28.92;26.90;;;;;;;33.46;38.45;101106.03;6043722;23;20034;-87
2022/07/04 08:21:35;;;;;;;29.73;27.60;;;;;;;33.53;36.77;101106.28;6042477;23;20027;-86
2022/07/04 08:24:16;;;;;;;28.35;26.13;;;;;;;32.76;36.81;101107.19;6042174;23;20023;-86
2022/07/04 08:26:43;;;;;;;28.48;26.48;;;;;;;32.96;36.74;101101.88;6041654;23;20027;-86
2022/07/04 08:29:16;;;;;;;31.17;29.17;;;;;;;32.72;37.52;101097.25;6042152;23;20027;-86
2022/07/04 08:31:56;;;;;;;41.83;39.25;;;;;;;32.81;38.56;101106.94;6041794;23;20440;-85
2022/07/04 08:34:32;;;;;;;32.75;30.95;;;;;;;33.14;36.88;101099.66;6042254;23;20027;-87
2022/07/04 08:37:05;;;;;;;33.88;31.73;;;;;;;33.17;37.04;101104.47;6042126;23;20023;-88
2022/07/04 08:39:44;;;;;;;;;;;;;;;33.38;36.00;101096.81;6043093;23;20031;-89
2022/07/04 08:42:17;;;;;;;32.05;29.75;;;;;;;33.35;36.30;101097.50;6042719;23;19918;-88
2022/07/04 08:44:50;;;;;;;32.28;30.27;;;;;;;32.01;37.48;101096.56;6042184;23;20023;-88
2022/07/04 08:47:34;;;;;;;25.65;23.95;;;;;;;31.92;38.62;101087.63;6042017;23;20027;-88
2022/07/04 08:50:11;;;;;;;28.13;26.08;;;;;;;32.14;38.05;101087.19;6042879;23;20023;-86
2022/07/04 08:52:42;;;;;;;28.63;26.65;;;;;;;32.66;38.45;101082.94;6042631;23;20098;-87
2022/07/04 09:00:56;;;;;;;24.10;22.30;;;;;;;33.76;41.99;101078.91;6042786;23;20069;-88
2022/07/04 09:06:57;;;;;;;25.48;23.58;;;;;;;34.04;36.15;101072.53;6044481;23;20106;-87
2022/07/04 09:09:27;;;;;;;28.95;26.80;;;;;;;34.07;36.71;101077.34;6043563;23;20030;-89
2022/07/04 09:12:00;;;;;;;27.95;25.42;;;;;;;34.26;36.26;101076.63;6044402;23;20017;-87
2022/07/04 09:14:30;;;;;;;24.85;22.95;;;;;;;34.51;35.70;101071.66;6047192;23;20019;-88
2022/07/04 09:17:10;;;;;;;25.15;22.52;;;;;;;34.30;35.82;101078.28;6045520;23;20031;-88
2022/07/04 09:19:42;;;;;;;26.20;24.30;;;;;;;34.29;36.05;101073.94;6046616;23;20031;-88
2022/07/04 09:22:12;;;;;;;;;;;;;;;34.15;35.58;101081.88;6044781;23;20033;-88
2022/07/04 09:25:14;;;;;;;31.30;29.10;;;;;;;33.90;39.06;101071.00;6042947;23;19928;-88
2022/07/04 09:28:03;;;;;;;29.50;27.20;;;;;;;34.80;36.13;101068.38;6042696;23;20416;-88
2022/07/04 09:30:35;;;;;;;28.38;26.15;;;;;;;34.69;33.74;101069.31;6044215;23;20106;-88
2022/07/04 09:33:17;;;;;;;28.30;25.77;;;;;;;34.74;35.19;101063.50;6050826;23;20066;-90
2022/07/04 09:35:47;;;;;;;;;;;;;;;34.41;34.79;101064.75;6048313;23;20023;-86
2022/07/04 09:38:27;;;;;;;33.42;30.98;;;;;;;33.55;37.45;101064.59;6045242;23;19928;-86
2022/07/04 09:44:19;;;;;;;36.33;33.70;;;;;;;33.97;37.20;101059.38;6043250;23;20397;-88
2022/07/04 09:46:55;;;;;;;31.83;29.52;;;;;;;34.72;36.26;101054.81;6011808;23;20074;-88
2022/07/04 09:49:25;;;;;;;28.38;25.98;;;;;;;34.93;34.25;101052.47;6041368;23;20083;-86
2022/07/04 09:52:17;;;;;;;27.85;25.58;;;;;;;34.35;34.54;101057.94;6042366;23;20149;-88
2022/07/04 09:54:48;;;;;;;29.77;27.60;;;;;;;34.67;35.21;101050.34;6042726;23;20023;-87
2022/07/04 09:57:33;;;;;;;30.27;28.23;;;;;;;34.64;34.13;101040.84;6042029;23;20357;-87
2022/07/04 10:00:44;;;;;;;29.55;27.30;;;;;;;34.36;34.77;101052.03;6042083;23;20020;-86
2022/07/04 10:03:21;;;;;;;29.55;27.40;;;;;;;34.60;34.92;101042.75;6044730;23;20090;-86
2022/07/04 10:09:11;;;;;;;33.10;30.63;;;;;;;35.10;35.96;101031.91;6040445;23;20019;-87
2022/07/04 10:11:54;;;;;;;27.45;25.52;;;;;;;34.56;35.79;101041.88;6042551;23;20455;-89
2022/07/04 10:14:30;;;;;;;27.75;25.75;;;;;;;34.94;35.50;101036.72;6042951;23;20027;-90
2022/07/04 10:17:09;;;;;;;27.58;25.48;;;;;;;34.77;37.00;101036.00;6042899;23;20030;-86
2022/07/04 10:19:52;;;;;;;27.73;25.50;;;;;;;35.14;35.50;101043.06;6042366;23;20031;-88
2022/07/04 10:22:34;;;;;;;28.88;26.40;;;;;;;34.26;35.65;101038.81;6042057;23;20019;-87
2022/07/04 10:25:12;;;;;;;26.25;24.45;;;;;;;34.02;36.77;101036.28;6042840;23;20023;-86
2022/07/04 10:27:46;;;;;;;30.25;28.35;;;;;;;34.74;34.29;101027.63;6046772;23;20033;-89
2022/07/04 10:30:23;;;;;;;29.02;26.95;;;;;;;35.17;33.34;101029.31;6043602;23;20445;-87
2022/07/04 10:32:55;;;;;;;29.27;27.17;;;;;;;34.86;34.62;101030.28;6042804;23;20108;-89
2022/07/04 10:35:39;;;;;;;;;;;;;;;34.32;36.16;101022.81;6041914;23;20034;-85
2022/07/04 10:38:11;;;;;;;29.02;26.92;;;;;;;35.06;36.27;101023.59;6040640;23;19917;-86
2022/07/04 10:40:53;;;;;;;30.55;28.10;;;;;;;35.03;36.28;101020.72;6041182;23;20027;-86
2022/07/04 10:44:06;;;;;;;30.02;27.80;;;;;;;34.27;35.22;101015.59;6040956;23;20049;-88
2022/07/04 10:47:02;;;;;;;30.85;28.50;;;;;;;35.62;36.07;101013.16;6043027;23;20066;-89
2022/07/04 10:49:37;;;;;;;33.30;31.17;;;;;;;35.72;34.59;101012.53;6018899;23;20051;-85
2022/07/04 10:52:22;;;;;;;33.60;30.95;;;;;;;35.50;34.95;100997.56;6041183;23;20023;-84
2022/07/04 10:54:54;;;;;;;33.67;31.17;;;;;;;35.57;33.65;101011.50;6042858;23;20047;-87
2022/07/04 10:57:38;;;;;;;;;;;;;;;36.17;34.30;100999.81;6044356;23;20020;-86
2022/07/04 11:00:15;;;;;;;30.45;28.02;;;;;;;36.11;33.81;100990.25;6042422;23;19918;-88
2022/07/04 11:03:12;;;;;;;29.80;27.88;;;;;;;35.77;32.32;100996.44;6041508;23;20024;-86
2022/07/04 11:05:49;;;;;;;29.67;27.27;;;;;;;35.84;33.05;100995.75;6042501;23;20033;-86
2022/07/04 11:09:02;;;;;;;26.75;24.10;;;;;;;36.33;33.21;100983.81;6041484;23;20019;-87
2022/07/04 11:11:54;;;;;;;26.35;24.30;;;;;;;34.39;34.95;100982.41;6040681;23;20138;-86
2022/07/04 11:14:44;;;;;;;26.40;24.40;;;;;;;35.62;32.68;100974.50;6041357;23;20445;-87
2022/07/04 11:17:32;;;;;;;30.45;28.05;;;;;;;36.66;34.44;100969.22;6042195;23;20540;-88
2022/07/04 11:20:19;;;;;;;50.28;46.90;;;;;;;34.53;34.24;100973.63;6041388;23;20447;-88
2022/07/04 11:23:08;;;;;;;27.95;25.75;;;;;;;35.27;36.11;100967.19;6040530;23;20099;-86
2022/07/04 11:25:41;;;;;;;29.20;27.00;;;;;;;35.63;36.99;100963.06;6040902;23;20102;-85
2022/07/04 11:28:36;;;;;;;29.67;26.88;;;;;;;35.82;36.00;100948.34;6041270;23;20406;-86
2022/07/04 11:31:06;;;;;;;44.22;41.50;;;;;;;35.98;34.96;100951.75;6041587;23;20038;-85
2022/07/04 11:33:41;;;;;;;47.22;44.08;;;;;;;36.49;34.66;100947.66;6041248;23;20023;-86
2022/07/04 11:36:14;;;;;;;31.10;28.70;;;;;;;36.73;34.16;100938.06;6042372;23;20051;-89
2022/07/04 11:38:48;;;;;;;32.47;29.65;;;;;;;37.38;32.59;100950.59;6041714;23;20039;-86
2022/07/04 11:47:25;;;;;;;52.92;49.10;;;;;;;37.06;35.64;100944.75;6042416;23;20101;-90
2022/07/04 11:50:04;;;;;;;34.08;31.60;;;;;;;36.34;32.19;100943.97;6042498;23;20091;-89
2022/07/04 11:52:46;;;;;;;27.48;25.67;;;;;;;36.40;33.13;100942.44;6041767;23;20061;-85
2022/07/04 11:55:22;;;;;;;30.23;27.77;;;;;;;36.50;33.66;100948.47;6041580;23;20027;-86
2022/07/04 11:58:09;;;;;;;31.98;29.77;;;;;;;35.92;32.83;100930.34;6040458;23;20020;-85
2022/07/04 12:00:50;;;;;;;33.70;31.10;;;;;;;34.85;33.98;100932.09;6041983;23;20027;-85
2022/07/04 12:03:25;;;;;;;41.78;39.30;;;;;;;35.17;34.66;100938.22;6041944;23;20027;-85
2022/07/04 12:06:06;;;;;;;36.85;34.35;;;;;;;36.17;35.31;100933.47;6041969;23;20344;-86
2022/07/04 12:08:49;;;;;;;28.60;26.50;;;;;;;35.96;39.84;100922.91;6042142;23;20038;-89
2022/07/04 12:11:18;;;;;;;36.60;34.00;;;;;;;36.14;35.59;100926.72;6041822;23;20094;-84
2022/07/04 12:13:51;;;;;;;32.22;29.83;;;;;;;36.42;33.07;100923.50;6042115;23;20059;-86
2022/07/04 12:16:23;;;;;;;31.17;28.95;;;;;;;36.82;33.46;100933.03;6041801;23;20023;-86
2022/07/04 12:18:58;;;;;;;31.52;29.35;;;;;;;37.02;31.30;100932.88;6042809;23;20031;-90
2022/07/04 12:21:30;;;;;;;34.42;31.80;;;;;;;37.07;33.99;100929.75;6044533;23;20023;-87
2022/07/04 12:24:02;;;;;;;;;;;;;;;37.07;35.23;100932.53;6043490;23;20047;-87
2022/07/04 12:26:36;;;;;;;33.17;30.77;;;;;;;35.95;36.19;100935.13;6041663;23;19918;-87
2022/07/04 12:29:13;;;;;;;36.67;34.15;;;;;;;35.86;36.21;100924.34;6041530;23;20098;-88
2022/07/04 12:31:46;;;;;;;37.60;35.20;;;;;;;35.40;36.78;100938.19;6042316;23;20023;-88
2022/07/04 12:34:20;;;;;;;37.55;35.13;;;;;;;35.88;35.86;100938.56;6042951;23;20094;-88
2022/07/04 12:36:54;;;;;;;35.45;33.13;;;;;;;35.27;35.43;100936.81;6043475;23;20027;-90
2022/07/04 12:39:37;;;;;;;39.65;37.00;;;;;;;33.88;35.56;100932.84;6043903;23;20019;-87
2022/07/04 12:42:05;;;;;;;37.17;34.47;;;;;;;35.04;36.95;100929.34;6041778;23;20015;-86
2022/07/04 12:44:33;;;;;;;42.05;39.40;;;;;;;36.01;34.93;100914.28;6042534;23;20019;-90
2022/07/04 12:47:04;;;;;;;38.15;35.72;;;;;;;36.34;33.41;100913.53;6042046;23;20027;-86
2022/07/04 12:49:31;;;;;;;53.40;49.90;;;;;;;35.64;34.28;100920.47;6041620;23;20069;-86
2022/07/04 12:52:12;;;;;;;48.78;45.88;;;;;;;36.38;35.01;100913.56;6041303;23;20019;-85
2022/07/04 12:55:10;;;;;;;52.43;49.10;;;;;;;36.86;32.25;100919.25;6042399;23;20091;-86
2022/07/04 12:57:40;;;;;;;48.35;45.50;;;;;;;37.05;32.20;100916.28;6042793;23;20023;-88
2022/07/04 13:00:11;;;;;;;50.08;47.10;;;;;;;36.87;31.90;100910.56;6042454;23;20035;-86
2022/07/04 13:02:40;;;;;;;47.42;44.30;;;;;;;37.05;31.75;100905.22;6043963;23;20429;-89
2022/07/04 13:05:10;;;;;;;47.05;44.08;;;;;;;36.35;36.08;100898.53;6045102;23;20046;-85
2022/07/04 13:07:41;;;;;;;48.15;45.25;;;;;;;36.55;34.36;100895.59;6044938;23;20034;-85
2022/07/04 13:10:20;;;;;;;54.58;51.13;;;;;;;36.44;32.42;100904.56;6043446;23;20352;-86
2022/07/04 13:12:49;;;;;;;50.78;47.67;;;;;;;36.51;33.30;100897.50;6044194;23;20019;-87
2022/07/04 13:15:31;;;;;;;44.92;41.92;;;;;;;36.53;33.63;100901.53;6045154;23;20433;-84
2022/07/04 13:18:36;;;;;;;;;;;;;;;;;;;;;
2022/07/04 13:21:13;;;;;;;39.67;37.10;;;;;;;37.31;34.02;100904.25;6039888;23;20098;-85
2022/07/04 13:23:49;;;;;;;41.60;38.88;;;;;;;36.30;32.80;100892.53;6042396;23;20030;-87
2022/07/04 13:26:43;;;;;;;39.22;36.42;;;;;;;35.70;33.72;100883.06;6041809;23;20132;-87
2022/07/04 13:29:45;;;;;;;51.88;48.47;;;;;;;36.49;35.50;100884.06;5982917;24;20030;-85
2022/07/04 13:32:20;;;;;;;43.50;40.70;;;;;;;36.28;36.27;100883.81;5894122;24;20774;-89
2022/07/04 13:35:04;;;;;;;41.03;38.05;;;;;;;35.93;37.31;100879.44;6000378;23;20023;-87
2022/07/04 13:37:33;;;;;;;42.08;39.22;;;;;;;36.36;36.32;100878.00;6041725;23;20103;-88
2022/07/04 13:40:09;;;;;;;40.20;37.78;;;;;;;36.84;34.12;100880.88;6041422;23;20028;-88
2022/07/04 13:45:29;;;;;;;39.30;36.63;;;;;;;37.58;32.45;100868.84;6038483;23;20461;-87
2022/07/04 13:47:59;;;;;;;36.63;34.22;;;;;;;37.31;34.14;100859.94;6040860;23;20469;-85
2022/07/04 13:50:26;;;;;;;42.67;39.75;;;;;;;37.20;31.69;100861.84;6041287;23;20035;-86
2022/07/04 13:52:56;;;;;;;38.85;36.05;;;;;;;36.86;31.60;100850.88;6040680;23;20019;-85
2022/07/04 13:55:23;;;;;;;40.42;37.30;;;;;;;37.22;35.98;100858.66;6046921;23;20455;-86
2022/07/04 13:57:53;;;;;;;39.88;37.28;;;;;;;36.86;33.98;100856.41;6041952;23;20039;-87
2022/07/04 14:00:46;;;;;;;39.75;36.92;;;;;;;36.58;36.96;100848.63;6042658;23;20029;-88
2022/07/04 14:03:13;;;;;;;36.40;33.40;;;;;;;37.44;35.65;100852.09;6037610;23;20043;-86
2022/07/04 14:05:52;;;;;;;;;;;;;;;;;;;;;
2022/07/04 14:08:19;;;;;;;33.50;30.92;;;;;;;35.97;38.09;100847.09;6041449;23;20090;-86